This is the latest recevied weather packets stored in our database for station/object KB9VKQ-13. If no packets are shown the sender has not sent any weather packets the latest 10 day(s).
| Time | Temp. | Humidity | Pressure | Rain* | Wind** | Luminosity | Snow |
|---|---|---|---|---|---|---|---|
| 1777997470 | 12.22° C | - | 0 hPa | 0 mm | - | - | - |
| 1777996840 | 12.78° C | - | 0 hPa | 0 mm | - | - | - |
| 1777996210 | 13.33° C | - | 0 hPa | 0 mm | - | - | - |
| 1777995580 | 12.78° C | - | 0 hPa | 0.25 mm | - | - | - |
| 1777994950 | 12.78° C | - | 0 hPa | 1.27 mm | - | - | - |
| 1777994320 | 11.67° C | - | 0 hPa | 3.3 mm | - | - | - |
| 1777993720 | 10.56° C | - | 0 hPa | 4.32 mm | - | - | - |
| 1777993090 | 10.56° C | - | 0 hPa | 4.32 mm | - | - | - |
| 1777992460 | 10° C | - | 0 hPa | 4.06 mm | - | - | - |
| 1777991830 | 9.44° C | - | 0 hPa | 3.81 mm | - | - | - |
| 1777991200 | 9.44° C | - | 0 hPa | 2.54 mm | - | - | - |
| 1777990600 | 10° C | - | 0 hPa | 0.76 mm | - | - | - |
| 1777989970 | 10° C | - | 0 hPa | 0.25 mm | - | - | - |
| 1777989340 | 10.56° C | - | 0 hPa | 0.51 mm | - | - | - |
| 1777988740 | 10.56° C | - | 0 hPa | 1.02 mm | - | - | - |
| 1777988110 | 11.11° C | - | 0 hPa | 1.27 mm | - | - | - |
| 1777987510 | 11.11° C | - | 0 hPa | 1.27 mm | - | - | - |
| 1777986910 | 11.11° C | - | 0 hPa | 1.27 mm | - | - | - |
| 1777986280 | 11.11° C | - | 0 hPa | 1.02 mm | - | - | - |
| 1777985680 | 11.11° C | - | 0 hPa | 0.76 mm | - | - | - |
| 1777985050 | 11.67° C | - | 0 hPa | 0.51 mm | - | - | - |
| 1777984420 | 11.67° C | - | 0 hPa | 0.51 mm | - | - | - |
| 1777983820 | 11.67° C | - | 0 hPa | 0.51 mm | - | - | - |
| 1777983220 | 11.67° C | - | 0 hPa | 0.51 mm | - | - | - |
| 1777982590 | 11.67° C | - | 0 hPa | 0.51 mm | - | - | - |
* Rain latest hour (hover to see other rain measurements)
** Current wind speed in m/s (hover to see current wind gust speed)